createdAt,value
2019-05-05T00:01:30.067Z,100014.06
2019-05-05T00:04:08.482Z,100021.83
2019-05-05T00:06:41.475Z,100016.44
2019-05-05T00:09:14.743Z,100016.88
2019-05-05T00:12:01.569Z,100020.84
2019-05-05T00:14:36.829Z,100022.45
2019-05-05T00:17:26.147Z,100020.37
2019-05-05T00:19:58.994Z,100032.00
2019-05-05T00:22:32.066Z,100036.67
2019-05-05T00:25:06.106Z,100038.23
2019-05-05T00:27:38.788Z,100042.23
2019-05-05T00:30:11.643Z,100043.53
2019-05-05T00:32:44.347Z,100046.50
2019-05-05T00:35:18.210Z,100040.45
2019-05-05T00:37:50.993Z,100054.37
2019-05-05T00:40:24.785Z,100058.75
2019-05-05T00:42:57.789Z,100058.27
2019-05-05T00:45:32.006Z,100060.53
2019-05-05T00:48:12.564Z,100058.38
2019-05-05T00:50:45.344Z,100058.60
2019-05-05T00:53:18.130Z,100056.86
2019-05-05T00:55:51.113Z,100062.50
2019-05-05T00:58:24.779Z,100058.64
2019-05-05T01:01:15.008Z,100064.58
2019-05-05T01:03:47.790Z,100062.68
2019-05-05T01:06:25.584Z,100067.64
2019-05-05T01:08:58.775Z,100068.64
2019-05-05T01:11:31.561Z,100071.56
2019-05-05T01:14:06.390Z,100073.19
2019-05-05T01:16:39.479Z,100067.25
2019-05-05T01:19:14.902Z,100077.28
2019-05-05T01:21:47.702Z,100075.09
2019-05-05T01:24:21.103Z,100075.16
2019-05-05T01:26:55.150Z,100079.30
2019-05-05T01:29:28.913Z,100073.39
2019-05-05T01:32:05.055Z,100068.93
2019-05-05T01:34:45.742Z,100073.92
2019-05-05T01:37:22.824Z,100084.83
2019-05-05T01:39:55.499Z,100082.48
2019-05-05T01:42:28.285Z,100087.38
2019-05-05T01:45:04.546Z,100079.44
2019-05-05T01:47:37.436Z,100084.02
2019-05-05T01:50:18.412Z,100087.78
2019-05-05T01:52:45.149Z,100091.11
2019-05-05T01:55:18.339Z,100105.89
2019-05-05T01:57:54.224Z,100110.75
2019-05-05T02:00:26.967Z,100122.33
2019-05-05T02:03:00.472Z,100135.72
2019-05-05T02:05:34.832Z,100145.37
2019-05-05T02:08:07.978Z,100153.38
2019-05-05T02:10:40.887Z,100154.05
2019-05-05T02:13:16.050Z,100154.64
2019-05-05T02:15:48.680Z,100155.27
2019-05-05T02:18:21.459Z,100160.72
2019-05-05T02:21:09.090Z,100155.58
2019-05-05T02:23:42.184Z,100154.28
2019-05-05T02:26:15.403Z,100161.74
2019-05-05T02:29:04.905Z,100167.95
2019-05-05T02:31:56.566Z,100174.11
2019-05-05T02:34:31.008Z,100178.61
2019-05-05T02:37:05.415Z,100177.04
2019-05-05T02:39:45.064Z,100185.65
2019-05-05T02:42:14.619Z,100183.95
2019-05-05T02:44:49.585Z,100186.86
2019-05-05T02:47:45.715Z,100187.89
2019-05-05T02:50:19.539Z,100189.67
2019-05-05T02:52:53.587Z,100199.06
2019-05-05T02:55:27.033Z,100202.73
2019-05-05T02:58:00.634Z,100202.69
2019-05-05T03:00:50.918Z,100204.30
2019-05-05T03:03:24.211Z,100205.75
2019-05-05T03:05:57.508Z,100207.17
2019-05-05T03:08:33.507Z,100209.78
2019-05-05T03:11:07.579Z,100218.47
2019-05-05T03:13:44.239Z,100217.58
2019-05-05T03:16:23.874Z,100211.40
2019-05-05T03:18:57.703Z,100215.34
2019-05-05T03:21:30.685Z,100225.30
2019-05-05T03:24:05.105Z,100232.02
2019-05-05T03:26:38.500Z,100236.52
2019-05-05T03:29:13.831Z,100238.35
2019-05-05T03:31:47.142Z,100239.84
2019-05-05T03:34:23.813Z,100242.44
2019-05-05T03:36:56.795Z,100243.44
2019-05-05T03:39:34.021Z,100249.41
2019-05-05T03:42:13.848Z,100240.41
2019-05-05T03:44:48.857Z,100245.33
2019-05-05T03:47:24.710Z,100259.70
2019-05-05T03:49:58.519Z,100269.80
2019-05-05T03:52:34.627Z,100269.86
2019-05-05T03:55:09.319Z,100280.27
2019-05-05T03:57:44.469Z,100273.55
2019-05-05T04:00:25.000Z,100269.47
2019-05-05T04:02:59.625Z,100283.50
2019-05-05T04:05:34.167Z,100292.30
2019-05-05T04:08:08.060Z,100297.34
2019-05-05T04:10:43.940Z,100303.67
2019-05-05T04:13:18.124Z,100309.63
2019-05-05T04:16:08.826Z,100311.13
2019-05-05T04:18:43.649Z,100313.62
2019-05-05T04:21:29.909Z,100308.84
2019-05-05T04:23:53.382Z,100310.13
2019-05-05T04:26:25.697Z,100308.64
2019-05-05T04:28:58.680Z,100312.06
2019-05-05T04:31:31.453Z,100318.66
2019-05-05T04:34:04.307Z,100311.03
2019-05-05T04:36:37.117Z,100315.05
2019-05-05T04:39:09.902Z,100316.44
2019-05-05T04:41:44.055Z,100316.44
2019-05-05T04:44:18.033Z,100325.16
2019-05-05T04:46:54.604Z,100334.52
2019-05-05T04:49:27.172Z,100327.84
2019-05-05T04:52:16.953Z,100331.87
2019-05-05T04:54:55.471Z,100329.88
2019-05-05T04:57:27.533Z,100333.45
2019-05-05T05:00:01.855Z,100326.70
2019-05-05T05:02:53.893Z,100327.72
2019-05-05T05:05:29.633Z,100324.84
2019-05-05T05:08:03.715Z,100332.23
2019-05-05T05:10:37.860Z,100331.61
2019-05-05T05:13:10.537Z,100335.87
2019-05-05T05:15:44.654Z,100338.33
2019-05-05T05:18:18.209Z,100346.22
2019-05-05T05:20:51.034Z,100346.13
2019-05-05T05:23:24.674Z,100349.42
2019-05-05T05:25:57.930Z,100357.69
2019-05-05T05:28:30.709Z,100356.95
2019-05-05T05:31:03.911Z,100353.85
2019-05-05T05:33:37.091Z,100350.28
2019-05-05T05:36:10.898Z,100362.20
2019-05-05T05:38:45.212Z,100366.33
2019-05-05T05:41:19.633Z,100366.70
2019-05-05T05:43:54.216Z,100361.09
2019-05-05T05:46:28.675Z,100363.08
2019-05-05T05:49:01.046Z,100366.33
2019-05-05T05:51:34.254Z,100369.39
2019-05-05T05:54:07.023Z,100367.58
2019-05-05T05:56:40.109Z,100369.91
2019-05-05T05:59:14.107Z,100374.78
2019-05-05T06:01:47.005Z,100383.70
2019-05-05T06:04:19.786Z,100387.45
2019-05-05T06:06:54.378Z,100394.88
2019-05-05T06:09:27.097Z,100400.87
2019-05-05T06:11:59.880Z,100397.57
2019-05-05T06:14:34.072Z,100401.69
2019-05-05T06:17:07.031Z,100406.45
2019-05-05T06:19:39.653Z,100406.47
2019-05-05T06:22:15.160Z,100408.49
2019-05-05T06:24:46.602Z,100409.47
2019-05-05T06:27:19.352Z,100408.50
2019-05-05T06:29:54.150Z,100411.02
2019-05-05T06:32:26.426Z,100407.97
2019-05-05T06:34:59.042Z,100414.05
2019-05-05T06:37:31.617Z,100413.34
2019-05-05T06:40:06.814Z,100405.88
2019-05-05T06:42:57.108Z,100416.91
2019-05-05T06:45:34.287Z,100421.02
2019-05-05T06:48:07.975Z,100431.05
2019-05-05T06:50:41.275Z,100422.70
2019-05-05T06:53:13.957Z,100429.59
2019-05-05T06:55:46.636Z,100432.67
2019-05-05T06:58:19.313Z,100440.73
2019-05-05T07:00:54.155Z,100436.95
2019-05-05T07:03:26.268Z,100441.90
2019-05-05T07:05:59.001Z,100439.61
2019-05-05T07:08:34.758Z,100433.17
2019-05-05T07:11:09.505Z,100429.61
2019-05-05T07:13:44.312Z,100433.03
2019-05-05T07:16:17.193Z,100441.66
2019-05-05T07:18:49.861Z,100439.64
2019-05-05T07:21:24.546Z,100445.37
2019-05-05T07:23:57.817Z,100456.49
2019-05-05T07:26:30.571Z,100454.66
2019-05-05T07:29:04.531Z,100464.80
2019-05-05T07:31:39.073Z,100457.78
2019-05-05T07:34:13.672Z,100460.20
2019-05-05T07:36:48.046Z,100469.23
2019-05-05T07:39:20.724Z,100469.47
2019-05-05T07:41:54.321Z,100472.31
2019-05-05T07:44:29.767Z,100465.27
2019-05-05T07:47:03.526Z,100464.45
2019-05-05T07:49:35.740Z,100464.05
2019-05-05T07:52:08.436Z,100469.98
2019-05-05T07:54:41.034Z,100475.53
2019-05-05T07:57:14.651Z,100471.75
2019-05-05T07:59:47.486Z,100479.16
2019-05-05T08:02:23.513Z,100485.36
2019-05-05T08:04:57.435Z,100480.05
2019-05-05T08:07:31.560Z,100471.53
2019-05-05T08:10:05.563Z,100470.39
2019-05-05T08:12:38.847Z,100470.73
2019-05-05T08:15:11.747Z,100473.02
2019-05-05T08:17:53.928Z,100474.75
2019-05-05T08:20:31.327Z,100480.38
2019-05-05T08:23:04.639Z,100480.26
2019-05-05T08:25:40.885Z,100482.74
2019-05-05T08:28:31.396Z,100485.70
2019-05-05T08:31:08.261Z,100480.68
2019-05-05T08:33:40.951Z,100485.28
2019-05-05T08:36:14.807Z,100482.19
2019-05-05T08:38:47.544Z,100481.97
2019-05-05T08:41:20.204Z,100489.36
2019-05-05T08:43:54.304Z,100481.24
2019-05-05T08:46:27.108Z,100483.78
2019-05-05T08:48:59.890Z,100496.46
2019-05-05T08:51:33.921Z,100492.73
2019-05-05T08:54:07.187Z,100492.39
2019-05-05T08:56:39.866Z,100492.94
2019-05-05T08:59:14.312Z,100499.36
2019-05-05T09:01:47.780Z,100492.99
2019-05-05T09:04:20.405Z,100491.97
2019-05-05T09:06:54.313Z,100497.44
2019-05-05T09:09:27.162Z,100506.96
2019-05-05T09:11:59.841Z,100496.21
2019-05-05T09:14:34.414Z,100505.95
2019-05-05T09:17:06.874Z,100490.44
2019-05-05T09:19:40.631Z,100489.59
2019-05-05T09:22:14.024Z,100490.91
2019-05-05T09:24:57.568Z,100500.75
2019-05-05T09:27:34.395Z,100500.63
2019-05-05T09:30:09.905Z,100501.55
2019-05-05T09:32:43.921Z,100507.64
2019-05-05T09:35:16.772Z,100506.50
2019-05-05T09:37:49.771Z,100519.06
2019-05-05T09:40:26.845Z,100521.97
2019-05-05T09:42:59.533Z,100518.14
2019-05-05T09:45:33.659Z,100510.09
2019-05-05T09:48:06.781Z,100517.19
2019-05-05T09:50:39.402Z,100513.95
2019-05-05T09:53:14.530Z,100515.05
2019-05-05T09:55:47.425Z,100513.84
2019-05-05T09:58:20.111Z,100509.89
2019-05-05T10:00:54.589Z,100515.43
2019-05-05T10:03:27.755Z,100517.79
2019-05-05T10:06:00.394Z,100522.70
2019-05-05T10:08:34.094Z,100518.31
2019-05-05T10:11:06.889Z,100518.50
2019-05-05T10:13:39.505Z,100512.27
2019-05-05T10:16:13.850Z,100507.00
2019-05-05T10:18:46.449Z,100523.31
2019-05-05T10:21:19.130Z,100517.22
2019-05-05T10:23:54.040Z,100517.66
2019-05-05T10:26:27.045Z,100513.69
2019-05-05T10:29:01.244Z,100514.09
2019-05-05T10:31:34.661Z,100512.46
2019-05-05T10:34:09.181Z,100511.41
2019-05-05T10:36:41.864Z,100519.88
2019-05-05T10:39:33.467Z,100516.73
2019-05-05T10:42:06.466Z,100509.66
2019-05-05T10:44:39.764Z,100513.12
2019-05-05T10:47:13.747Z,100509.98
2019-05-05T10:49:46.668Z,100508.72
2019-05-05T10:52:19.348Z,100506.01
2019-05-05T10:54:54.817Z,100499.17
2019-05-05T10:57:28.530Z,100504.31
2019-05-05T11:00:10.123Z,100500.48
2019-05-05T11:02:35.581Z,100509.42
2019-05-05T11:05:11.130Z,100500.67
2019-05-05T11:07:44.217Z,100507.27
2019-05-05T11:10:21.411Z,100501.30
2019-05-05T11:12:54.082Z,100509.96
2019-05-05T11:15:26.766Z,100516.99
2019-05-05T11:17:59.543Z,100514.55
2019-05-05T11:20:34.009Z,100513.92
2019-05-05T11:23:06.854Z,100513.97
2019-05-05T11:25:39.469Z,100506.84
2019-05-05T11:28:12.318Z,100507.52
2019-05-05T11:30:48.275Z,100511.98
2019-05-05T11:33:25.456Z,100506.55
2019-05-05T11:36:15.441Z,100509.76
2019-05-05T11:38:48.314Z,100513.58
2019-05-05T11:41:21.604Z,100508.64
2019-05-05T11:43:55.008Z,100508.84
2019-05-05T11:46:28.298Z,100508.56
2019-05-05T11:49:00.978Z,100516.08
2019-05-05T11:51:34.336Z,100515.09
2019-05-05T11:54:07.062Z,100518.69
2019-05-05T11:56:39.756Z,100529.66
2019-05-05T11:59:14.334Z,100517.69
2019-05-05T12:01:47.659Z,100519.09
2019-05-05T12:04:20.636Z,100523.56
2019-05-05T12:06:54.559Z,100513.01
2019-05-05T12:09:30.100Z,100512.08
2019-05-05T12:12:03.792Z,100525.16
2019-05-05T12:14:36.689Z,100520.77
2019-05-05T12:17:09.369Z,100519.11
2019-05-05T12:19:43.492Z,100512.53
2019-05-05T12:22:16.573Z,100511.20
2019-05-05T12:24:50.481Z,100510.34
2019-05-05T12:27:24.720Z,100506.84
2019-05-05T12:29:57.668Z,100520.42
2019-05-05T12:32:31.395Z,100517.57
2019-05-05T12:35:04.300Z,100514.73
2019-05-05T12:37:38.374Z,100523.36
2019-05-05T12:40:11.145Z,100512.14
2019-05-05T12:42:44.448Z,100507.97
2019-05-05T12:45:20.184Z,100500.05
2019-05-05T12:48:10.700Z,100494.98
2019-05-05T12:50:44.259Z,100495.44
2019-05-05T12:53:17.185Z,100502.95
2019-05-05T12:55:51.078Z,100500.38
2019-05-05T12:58:23.774Z,100510.03
2019-05-05T13:01:14.435Z,100512.05
2019-05-05T13:03:47.250Z,100514.32
2019-05-05T13:06:19.921Z,100512.58
2019-05-05T13:08:52.722Z,100517.34
2019-05-05T13:11:25.493Z,100514.76
2019-05-05T13:13:58.179Z,100506.33
2019-05-05T13:16:31.824Z,100497.78
2019-05-05T13:19:06.038Z,100493.86
2019-05-05T13:21:44.271Z,100493.64
2019-05-05T13:24:16.763Z,100489.98
2019-05-05T13:27:10.699Z,100479.16
2019-05-05T13:29:44.266Z,100484.94
2019-05-05T13:32:16.774Z,100499.06
2019-05-05T13:34:49.409Z,100499.60
2019-05-05T13:37:24.454Z,100491.27
2019-05-05T13:39:57.122Z,100485.66
2019-05-05T13:42:30.503Z,100494.89
2019-05-05T13:45:03.935Z,100492.03
2019-05-05T13:47:36.713Z,100505.55
2019-05-05T13:50:14.134Z,100508.58
2019-05-05T13:52:46.760Z,100502.36
2019-05-05T13:55:19.839Z,100499.31
2019-05-05T13:57:52.518Z,100500.20
2019-05-05T14:00:25.671Z,100496.66
2019-05-05T14:02:58.593Z,100498.86
2019-05-05T14:05:31.290Z,100489.66
2019-05-05T14:08:04.255Z,100497.95
2019-05-05T14:10:37.861Z,100496.70
2019-05-05T14:13:10.754Z,100489.20
2019-05-05T14:15:44.112Z,100481.98
2019-05-05T14:18:18.662Z,100485.88
2019-05-05T14:20:51.348Z,100480.83
2019-05-05T14:23:24.636Z,100484.13
2019-05-05T14:25:57.322Z,100488.80
2019-05-05T14:28:29.999Z,100493.64
2019-05-05T14:31:16.294Z,100495.16
2019-05-05T14:33:50.623Z,100498.42
2019-05-05T14:36:25.859Z,100490.50
2019-05-05T14:38:59.404Z,100494.95
2019-05-05T14:41:32.178Z,100501.06
2019-05-05T14:44:04.908Z,100499.18
2019-05-05T14:46:37.700Z,100500.86
2019-05-05T14:49:10.995Z,100496.86
2019-05-05T14:51:44.679Z,100499.53
2019-05-05T14:54:17.988Z,100506.07
2019-05-05T14:56:51.469Z,100501.05
2019-05-05T14:59:24.771Z,100495.81
2019-05-05T15:01:58.058Z,100494.44
2019-05-05T15:04:34.482Z,100495.78
2019-05-05T15:07:09.057Z,100494.05
2019-05-05T15:09:44.083Z,100491.32
2019-05-05T15:12:30.492Z,100498.73
2019-05-05T15:15:03.958Z,100499.22
2019-05-05T15:17:38.730Z,100496.53
2019-05-05T15:20:13.959Z,100494.30
2019-05-05T15:22:46.943Z,100495.23
2019-05-05T15:25:20.901Z,100491.63
2019-05-05T15:27:54.214Z,100500.73
2019-05-05T15:30:27.331Z,100485.88
2019-05-05T15:33:00.233Z,100495.00
2019-05-05T15:35:33.962Z,100497.16
2019-05-05T15:38:06.973Z,100506.20
2019-05-05T15:40:39.653Z,100509.06
2019-05-05T15:43:14.169Z,100499.36
2019-05-05T15:45:48.960Z,100487.69
2019-05-05T15:48:21.923Z,100490.66
2019-05-05T15:50:54.709Z,100490.83
2019-05-05T15:53:27.387Z,100495.86
2019-05-05T15:56:00.839Z,100495.81
2019-05-05T15:58:34.209Z,100504.45
2019-05-05T16:01:07.324Z,100500.67
2019-05-05T16:03:40.048Z,100500.38
2019-05-05T16:06:14.272Z,100500.70
2019-05-05T16:08:47.157Z,100510.75
2019-05-05T16:11:20.807Z,100508.08
2019-05-05T16:13:54.474Z,100508.47
2019-05-05T16:16:36.734Z,100508.34
2019-05-05T16:19:28.093Z,100506.13
2019-05-05T16:22:03.904Z,100510.38
2019-05-05T16:24:38.563Z,100508.34
2019-05-05T16:27:21.723Z,100500.50
2019-05-05T16:29:50.570Z,100484.81
2019-05-05T16:32:24.852Z,100477.47
2019-05-05T16:34:59.447Z,100476.97
2019-05-05T16:37:34.598Z,100475.00
2019-05-05T16:40:10.610Z,100474.16
2019-05-05T16:42:43.992Z,100480.56
2019-05-05T16:45:18.984Z,100477.48
2019-05-05T16:47:51.723Z,100485.08
2019-05-05T16:50:25.522Z,100484.08
2019-05-05T16:53:03.961Z,100478.82
2019-05-05T16:55:38.365Z,100487.05
2019-05-05T16:58:13.778Z,100489.58
2019-05-05T17:00:47.509Z,100480.25
2019-05-05T17:03:20.173Z,100476.70
2019-05-05T17:05:54.568Z,100483.22
2019-05-05T17:08:27.877Z,100476.14
2019-05-05T17:11:03.659Z,100480.35
2019-05-05T17:13:40.717Z,100484.99
2019-05-05T17:16:14.686Z,100485.39
2019-05-05T17:18:49.777Z,100488.83
2019-05-05T17:21:22.760Z,100490.77
2019-05-05T17:23:55.486Z,100500.67
2019-05-05T17:26:28.118Z,100503.03
2019-05-05T17:29:01.197Z,100510.66
2019-05-05T17:31:34.023Z,100503.39
2019-05-05T17:34:18.923Z,100518.63
2019-05-05T17:36:56.363Z,100518.13
2019-05-05T17:39:30.663Z,100517.98
2019-05-05T17:42:05.586Z,100523.61
2019-05-05T17:44:55.680Z,100522.22
2019-05-05T17:47:39.624Z,100521.62
2019-05-05T17:50:18.655Z,100528.44
2019-05-05T17:53:11.302Z,100528.95
2019-05-05T17:55:44.438Z,100528.69
2019-05-05T17:58:17.268Z,100535.39
2019-05-05T18:00:51.588Z,100532.52
2019-05-05T18:03:24.868Z,100532.73
2019-05-05T18:06:09.348Z,100536.35
2019-05-05T18:08:46.260Z,100537.49
2019-05-05T18:11:18.632Z,100542.85
2019-05-05T18:13:59.860Z,100539.05
2019-05-05T18:16:33.907Z,100542.23
2019-05-05T18:19:06.905Z,100548.82
2019-05-05T18:21:40.780Z,100545.41
2019-05-05T18:24:13.786Z,100542.01
2019-05-05T18:26:46.685Z,100543.52
2019-05-05T18:29:20.022Z,100550.56
2019-05-05T18:31:53.668Z,100550.19
2019-05-05T18:34:27.434Z,100562.06
2019-05-05T18:37:00.123Z,100563.30
2019-05-05T18:39:34.315Z,100566.55
2019-05-05T18:42:20.737Z,100566.95
2019-05-05T18:44:55.662Z,100572.64
2019-05-05T18:47:28.382Z,100564.31
2019-05-05T18:50:00.974Z,100572.16
2019-05-05T18:52:34.739Z,100567.08
2019-05-05T18:55:09.046Z,100569.55
2019-05-05T18:57:43.505Z,100571.86
2019-05-05T19:00:18.803Z,100569.86
2019-05-05T19:02:54.872Z,100581.81
2019-05-05T19:05:47.406Z,100584.23
2019-05-05T19:08:21.627Z,100585.39
2019-05-05T19:10:54.920Z,100591.41
2019-05-05T19:13:27.586Z,100587.33
2019-05-05T19:16:00.880Z,100583.22
2019-05-05T19:18:34.074Z,100588.63
2019-05-05T19:21:11.178Z,100587.53
2019-05-05T19:23:44.718Z,100589.63
2019-05-05T19:26:17.766Z,100587.20
2019-05-05T19:28:50.532Z,100590.09
2019-05-05T19:31:23.214Z,100590.71
2019-05-05T19:33:56.065Z,100594.80
2019-05-05T19:36:29.384Z,100588.92
2019-05-05T19:39:04.143Z,100594.69
2019-05-05T19:41:37.920Z,100597.09
2019-05-05T19:44:10.703Z,100592.44
2019-05-05T19:46:47.675Z,100595.35
2019-05-05T19:49:24.170Z,100594.72
2019-05-05T19:51:57.234Z,100589.36
2019-05-05T19:54:29.909Z,100598.01
2019-05-05T19:57:03.839Z,100596.04
2019-05-05T19:59:37.365Z,100605.16
2019-05-05T20:02:09.999Z,100600.47
2019-05-05T20:04:44.593Z,100598.38
2019-05-05T20:07:17.512Z,100597.45
2019-05-05T20:09:50.902Z,100593.36
2019-05-05T20:12:25.886Z,100590.97
2019-05-05T20:15:03.935Z,100594.30
2019-05-05T20:17:38.299Z,100592.98
2019-05-05T20:20:13.832Z,100593.95
2019-05-05T20:22:46.694Z,100597.16
2019-05-05T20:25:24.406Z,100593.05
2019-05-05T20:28:03.725Z,100597.63
2019-05-05T20:30:40.323Z,100596.98
2019-05-05T20:33:18.088Z,100591.14
2019-05-05T20:35:53.854Z,100593.58
2019-05-05T20:38:28.978Z,100593.58
2019-05-05T20:41:14.235Z,100588.41
2019-05-05T20:43:48.272Z,100590.20
2019-05-05T20:46:23.739Z,100587.83
2019-05-05T20:48:58.277Z,100588.61
2019-05-05T20:51:38.631Z,100588.39
2019-05-05T20:54:11.380Z,100591.00
2019-05-05T20:56:44.533Z,100587.16
2019-05-05T20:59:28.141Z,100586.80
2019-05-05T21:01:55.548Z,100590.84
2019-05-05T21:04:28.223Z,100588.74
2019-05-05T21:07:00.905Z,100592.26
2019-05-05T21:09:34.651Z,100587.11
2019-05-05T21:12:07.592Z,100585.64
2019-05-05T21:14:40.890Z,100586.02
2019-05-05T21:17:13.794Z,100592.11
2019-05-05T21:19:46.561Z,100592.97
2019-05-05T21:22:29.801Z,100595.25
2019-05-05T21:25:02.474Z,100590.86
2019-05-05T21:27:35.241Z,100596.80
2019-05-05T21:30:08.842Z,100593.58
2019-05-05T21:32:43.386Z,100597.84
2019-05-05T21:35:16.050Z,100597.02
2019-05-05T21:37:48.860Z,100595.06
2019-05-05T21:40:24.862Z,100597.59
2019-05-05T21:42:58.174Z,100598.05
2019-05-05T21:45:30.857Z,100596.55
2019-05-05T21:48:04.251Z,100602.95
2019-05-05T21:50:54.140Z,100598.39
2019-05-05T21:53:28.601Z,100602.16
2019-05-05T21:56:18.741Z,100603.13
2019-05-05T21:58:53.574Z,100598.54
2019-05-05T22:01:27.577Z,100598.45
2019-05-05T22:04:00.780Z,100596.09
2019-05-05T22:06:34.056Z,100601.64
2019-05-05T22:09:08.690Z,100600.34
2019-05-05T22:11:43.464Z,100600.08
2019-05-05T22:14:15.745Z,100598.33
2019-05-05T22:16:49.506Z,100596.31
2019-05-05T22:19:24.021Z,100591.78
2019-05-05T22:21:58.447Z,100594.56
2019-05-05T22:24:31.126Z,100596.90
2019-05-05T22:27:04.701Z,100598.16
2019-05-05T22:29:37.714Z,100597.27
2019-05-05T22:32:10.388Z,100594.84
2019-05-05T22:34:44.402Z,100591.70
2019-05-05T22:37:17.284Z,100591.92
2019-05-05T22:39:51.093Z,100595.19
2019-05-05T22:42:24.627Z,100594.59
2019-05-05T22:44:57.775Z,100600.73
2019-05-05T22:47:30.458Z,100591.78
2019-05-05T22:50:05.182Z,100594.38
2019-05-05T22:52:37.885Z,100589.50
2019-05-05T22:55:10.853Z,100587.34
2019-05-05T22:57:45.191Z,100594.84
2019-05-05T23:00:26.571Z,100587.31
2019-05-05T23:03:13.668Z,100589.15
2019-05-05T23:05:50.380Z,100589.11
2019-05-05T23:08:24.296Z,100588.07
2019-05-05T23:10:57.131Z,100592.59
2019-05-05T23:13:30.005Z,100593.26
2019-05-05T23:16:04.540Z,100584.17
2019-05-05T23:18:37.521Z,100587.41
2019-05-05T23:21:21.817Z,100585.97
2019-05-05T23:24:03.703Z,100580.69
2019-05-05T23:26:44.283Z,100584.96
2019-05-05T23:29:17.020Z,100586.30
2019-05-05T23:31:49.631Z,100585.28
2019-05-05T23:34:24.125Z,100580.98
2019-05-05T23:36:56.628Z,100581.50
2019-05-05T23:39:29.513Z,100578.69
2019-05-05T23:42:04.045Z,100587.36
2019-05-05T23:44:36.570Z,100577.67
2019-05-05T23:47:09.239Z,100581.62
2019-05-05T23:49:43.937Z,100582.78
2019-05-05T23:52:17.215Z,100582.83
2019-05-05T23:54:49.850Z,100582.63
2019-05-05T23:57:24.132Z,100579.37
2019-05-05T23:59:56.780Z,100586.10
